sensor_id;sensor_type;location;lat;lon;timestamp;P1;durP1;ratioP1;P2;durP2;ratioP2
69985;SDS011;57328;52.054;5.294;2023-03-17T00:00:49;7.15;;;2.65;;
69985;SDS011;57328;52.054;5.294;2023-03-17T00:03:23;5.07;;;2.05;;
69985;SDS011;57328;52.054;5.294;2023-03-17T00:05:52;4.40;;;2.13;;
69985;SDS011;57328;52.054;5.294;2023-03-17T00:08:20;4.60;;;2.20;;
69985;SDS011;57328;52.054;5.294;2023-03-17T00:10:48;5.82;;;2.45;;
69985;SDS011;57328;52.054;5.294;2023-03-17T00:13:16;4.47;;;2.38;;
69985;SDS011;57328;52.054;5.294;2023-03-17T00:15:44;5.63;;;2.42;;
69985;SDS011;57328;52.054;5.294;2023-03-17T00:18:12;4.88;;;2.42;;
69985;SDS011;57328;52.054;5.294;2023-03-17T00:20:43;5.97;;;2.80;;
69985;SDS011;57328;52.054;5.294;2023-03-17T00:23:17;6.32;;;2.63;;
69985;SDS011;57328;52.054;5.294;2023-03-17T00:25:45;6.15;;;2.67;;
69985;SDS011;57328;52.054;5.294;2023-03-17T00:28:16;7.93;;;2.20;;
69985;SDS011;57328;52.054;5.294;2023-03-17T00:30:44;7.50;;;2.22;;
69985;SDS011;57328;52.054;5.294;2023-03-17T00:33:11;7.13;;;2.78;;
69985;SDS011;57328;52.054;5.294;2023-03-17T00:35:38;6.18;;;2.33;;
69985;SDS011;57328;52.054;5.294;2023-03-17T00:38:08;6.95;;;2.10;;
69985;SDS011;57328;52.054;5.294;2023-03-17T00:40:36;6.40;;;2.65;;
69985;SDS011;57328;52.054;5.294;2023-03-17T00:43:04;3.78;;;2.28;;
69985;SDS011;57328;52.054;5.294;2023-03-17T00:45:33;5.22;;;2.53;;
69985;SDS011;57328;52.054;5.294;2023-03-17T00:48:00;6.35;;;2.38;;
69985;SDS011;57328;52.054;5.294;2023-03-17T00:50:28;8.00;;;2.72;;
69985;SDS011;57328;52.054;5.294;2023-03-17T00:52:56;7.88;;;2.75;;
69985;SDS011;57328;52.054;5.294;2023-03-17T00:55:24;7.35;;;2.72;;
69985;SDS011;57328;52.054;5.294;2023-03-17T00:57:51;4.82;;;2.55;;
69985;SDS011;57328;52.054;5.294;2023-03-17T01:00:26;8.80;;;2.58;;
69985;SDS011;57328;52.054;5.294;2023-03-17T01:02:55;5.55;;;2.45;;
69985;SDS011;57328;52.054;5.294;2023-03-17T01:05:23;5.85;;;2.60;;
69985;SDS011;57328;52.054;5.294;2023-03-17T01:07:52;5.50;;;2.38;;
69985;SDS011;57328;52.054;5.294;2023-03-17T01:10:24;6.55;;;2.42;;
69985;SDS011;57328;52.054;5.294;2023-03-17T01:12:52;4.18;;;2.25;;
69985;SDS011;57328;52.054;5.294;2023-03-17T01:15:20;4.47;;;2.33;;
69985;SDS011;57328;52.054;5.294;2023-03-17T01:17:47;6.82;;;2.58;;
69985;SDS011;57328;52.054;5.294;2023-03-17T01:20:19;7.97;;;2.45;;
69985;SDS011;57328;52.054;5.294;2023-03-17T01:22:48;4.55;;;2.40;;
69985;SDS011;57328;52.054;5.294;2023-03-17T01:25:16;7.32;;;2.58;;
69985;SDS011;57328;52.054;5.294;2023-03-17T01:27:44;5.93;;;2.55;;
69985;SDS011;57328;52.054;5.294;2023-03-17T01:30:20;6.00;;;2.40;;
69985;SDS011;57328;52.054;5.294;2023-03-17T01:32:47;7.20;;;2.45;;
69985;SDS011;57328;52.054;5.294;2023-03-17T01:48:05;5.82;;;2.65;;
69985;SDS011;57328;52.054;5.294;2023-03-17T01:50:34;6.28;;;2.80;;
69985;SDS011;57328;52.054;5.294;2023-03-17T01:53:01;5.28;;;2.70;;
69985;SDS011;57328;52.054;5.294;2023-03-17T01:55:29;7.30;;;2.88;;
69985;SDS011;57328;52.054;5.294;2023-03-17T01:57:56;6.18;;;2.38;;
69985;SDS011;57328;52.054;5.294;2023-03-17T02:00:24;6.18;;;2.88;;
69985;SDS011;57328;52.054;5.294;2023-03-17T02:02:52;5.55;;;2.72;;
69985;SDS011;57328;52.054;5.294;2023-03-17T02:05:24;8.57;;;3.05;;
69985;SDS011;57328;52.054;5.294;2023-03-17T02:07:52;4.78;;;2.30;;
69985;SDS011;57328;52.054;5.294;2023-03-17T02:10:21;5.97;;;2.55;;
69985;SDS011;57328;52.054;5.294;2023-03-17T02:12:50;4.55;;;2.30;;
69985;SDS011;57328;52.054;5.294;2023-03-17T02:15:19;6.75;;;2.80;;
69985;SDS011;57328;52.054;5.294;2023-03-17T02:17:46;4.40;;;2.30;;
69985;SDS011;57328;52.054;5.294;2023-03-17T02:23:36;6.68;;;2.30;;
69985;SDS011;57328;52.054;5.294;2023-03-17T02:26:04;7.30;;;2.72;;
69985;SDS011;57328;52.054;5.294;2023-03-17T02:28:32;7.30;;;2.30;;
69985;SDS011;57328;52.054;5.294;2023-03-17T02:31:01;5.93;;;2.70;;
69985;SDS011;57328;52.054;5.294;2023-03-17T02:33:28;5.18;;;2.53;;
69985;SDS011;57328;52.054;5.294;2023-03-17T02:35:57;6.65;;;2.30;;
69985;SDS011;57328;52.054;5.294;2023-03-17T02:38:24;4.97;;;2.60;;
69985;SDS011;57328;52.054;5.294;2023-03-17T02:40:52;5.72;;;2.50;;
69985;SDS011;57328;52.054;5.294;2023-03-17T02:43:19;5.40;;;2.38;;
69985;SDS011;57328;52.054;5.294;2023-03-17T02:45:47;4.90;;;2.47;;
69985;SDS011;57328;52.054;5.294;2023-03-17T02:48:14;7.38;;;2.20;;
69985;SDS011;57328;52.054;5.294;2023-03-17T02:50:41;7.50;;;2.17;;
69985;SDS011;57328;52.054;5.294;2023-03-17T02:53:09;6.47;;;2.80;;
69985;SDS011;57328;52.054;5.294;2023-03-17T02:55:36;7.50;;;2.80;;
69985;SDS011;57328;52.054;5.294;2023-03-17T02:58:03;5.13;;;2.50;;
69985;SDS011;57328;52.054;5.294;2023-03-17T03:00:30;4.57;;;2.17;;
69985;SDS011;57328;52.054;5.294;2023-03-17T03:02:59;5.15;;;2.30;;
69985;SDS011;57328;52.054;5.294;2023-03-17T03:05:26;7.13;;;3.28;;
69985;SDS011;57328;52.054;5.294;2023-03-17T03:07:54;5.70;;;2.10;;
69985;SDS011;57328;52.054;5.294;2023-03-17T03:10:21;4.53;;;2.25;;
69985;SDS011;57328;52.054;5.294;2023-03-17T03:12:48;5.80;;;2.50;;
69985;SDS011;57328;52.054;5.294;2023-03-17T03:15:15;8.55;;;2.40;;
69985;SDS011;57328;52.054;5.294;2023-03-17T03:17:43;5.32;;;2.30;;
69985;SDS011;57328;52.054;5.294;2023-03-17T03:20:10;5.13;;;2.38;;
69985;SDS011;57328;52.054;5.294;2023-03-17T03:22:38;6.55;;;2.17;;
69985;SDS011;57328;52.054;5.294;2023-03-17T03:25:05;6.63;;;2.25;;
69985;SDS011;57328;52.054;5.294;2023-03-17T03:27:33;6.03;;;2.70;;
69985;SDS011;57328;52.054;5.294;2023-03-17T03:30:01;5.53;;;2.35;;
69985;SDS011;57328;52.054;5.294;2023-03-17T03:32:28;4.32;;;2.35;;
69985;SDS011;57328;52.054;5.294;2023-03-17T03:34:55;4.78;;;2.42;;
69985;SDS011;57328;52.054;5.294;2023-03-17T03:37:23;6.32;;;2.20;;
69985;SDS011;57328;52.054;5.294;2023-03-17T03:39:50;5.45;;;2.30;;
69985;SDS011;57328;52.054;5.294;2023-03-17T03:42:17;5.38;;;2.40;;
69985;SDS011;57328;52.054;5.294;2023-03-17T03:44:44;6.28;;;2.33;;
69985;SDS011;57328;52.054;5.294;2023-03-17T03:47:11;6.28;;;2.63;;
69985;SDS011;57328;52.054;5.294;2023-03-17T03:49:39;5.80;;;2.28;;
69985;SDS011;57328;52.054;5.294;2023-03-17T03:52:06;6.97;;;2.58;;
69985;SDS011;57328;52.054;5.294;2023-03-17T03:54:33;7.25;;;2.40;;
69985;SDS011;57328;52.054;5.294;2023-03-17T03:57:01;9.07;;;3.08;;
69985;SDS011;57328;52.054;5.294;2023-03-17T03:59:28;7.15;;;2.75;;
69985;SDS011;57328;52.054;5.294;2023-03-17T04:01:55;6.72;;;2.35;;
69985;SDS011;57328;52.054;5.294;2023-03-17T04:04:22;6.97;;;2.40;;
69985;SDS011;57328;52.054;5.294;2023-03-17T04:06:50;5.20;;;2.30;;
69985;SDS011;57328;52.054;5.294;2023-03-17T04:09:17;5.95;;;2.42;;
69985;SDS011;57328;52.054;5.294;2023-03-17T04:11:44;5.90;;;2.15;;
69985;SDS011;57328;52.054;5.294;2023-03-17T04:14:11;7.15;;;2.53;;
69985;SDS011;57328;52.054;5.294;2023-03-17T04:16:39;4.60;;;2.25;;
69985;SDS011;57328;52.054;5.294;2023-03-17T04:19:08;4.55;;;2.28;;
69985;SDS011;57328;52.054;5.294;2023-03-17T04:21:36;5.78;;;2.35;;
69985;SDS011;57328;52.054;5.294;2023-03-17T04:24:03;5.13;;;2.20;;
69985;SDS011;57328;52.054;5.294;2023-03-17T04:26:31;8.07;;;2.40;;
69985;SDS011;57328;52.054;5.294;2023-03-17T04:28:58;6.22;;;2.55;;
69985;SDS011;57328;52.054;5.294;2023-03-17T04:31:25;5.13;;;2.40;;
69985;SDS011;57328;52.054;5.294;2023-03-17T04:33:52;7.60;;;2.60;;
69985;SDS011;57328;52.054;5.294;2023-03-17T04:36:20;4.18;;;1.52;;
69985;SDS011;57328;52.054;5.294;2023-03-17T04:38:48;7.90;;;2.50;;
69985;SDS011;57328;52.054;5.294;2023-03-17T04:41:15;6.22;;;2.10;;
69985;SDS011;57328;52.054;5.294;2023-03-17T04:43:42;5.28;;;2.30;;
69985;SDS011;57328;52.054;5.294;2023-03-17T04:46:10;5.72;;;2.47;;
69985;SDS011;57328;52.054;5.294;2023-03-17T04:48:37;5.00;;;2.30;;
69985;SDS011;57328;52.054;5.294;2023-03-17T04:51:05;6.93;;;2.30;;
69985;SDS011;57328;52.054;5.294;2023-03-17T04:53:32;6.40;;;2.28;;
69985;SDS011;57328;52.054;5.294;2023-03-17T04:55:59;7.28;;;2.42;;
69985;SDS011;57328;52.054;5.294;2023-03-17T05:01:15;4.93;;;2.20;;
69985;SDS011;57328;52.054;5.294;2023-03-17T05:03:42;3.17;;;1.27;;
69985;SDS011;57328;52.054;5.294;2023-03-17T05:06:10;4.55;;;2.05;;
69985;SDS011;57328;52.054;5.294;2023-03-17T05:08:37;7.43;;;2.70;;
69985;SDS011;57328;52.054;5.294;2023-03-17T05:11:04;5.35;;;2.10;;
69985;SDS011;57328;52.054;5.294;2023-03-17T05:13:32;5.10;;;2.35;;
69985;SDS011;57328;52.054;5.294;2023-03-17T05:15:59;6.80;;;2.17;;
69985;SDS011;57328;52.054;5.294;2023-03-17T05:18:27;5.00;;;2.25;;
69985;SDS011;57328;52.054;5.294;2023-03-17T05:20:54;7.35;;;2.28;;
69985;SDS011;57328;52.054;5.294;2023-03-17T05:23:22;5.20;;;2.30;;
69985;SDS011;57328;52.054;5.294;2023-03-17T05:25:49;6.28;;;2.80;;
69985;SDS011;57328;52.054;5.294;2023-03-17T05:28:16;6.50;;;2.65;;
69985;SDS011;57328;52.054;5.294;2023-03-17T05:30:44;6.47;;;2.30;;
69985;SDS011;57328;52.054;5.294;2023-03-17T05:33:13;6.50;;;2.22;;
69985;SDS011;57328;52.054;5.294;2023-03-17T05:35:40;5.20;;;2.10;;
69985;SDS011;57328;52.054;5.294;2023-03-17T05:38:07;5.55;;;2.30;;
69985;SDS011;57328;52.054;5.294;2023-03-17T05:43:03;6.40;;;2.40;;
69985;SDS011;57328;52.054;5.294;2023-03-17T05:45:31;4.28;;;1.83;;
69985;SDS011;57328;52.054;5.294;2023-03-17T05:47:59;6.00;;;2.08;;
69985;SDS011;57328;52.054;5.294;2023-03-17T05:50:26;5.35;;;2.63;;
69985;SDS011;57328;52.054;5.294;2023-03-17T05:52:53;4.65;;;2.10;;
69985;SDS011;57328;52.054;5.294;2023-03-17T05:55:20;6.70;;;2.25;;
69985;SDS011;57328;52.054;5.294;2023-03-17T05:57:47;8.15;;;2.28;;
69985;SDS011;57328;52.054;5.294;2023-03-17T06:00:15;5.50;;;2.38;;
69985;SDS011;57328;52.054;5.294;2023-03-17T06:02:43;5.78;;;2.30;;
69985;SDS011;57328;52.054;5.294;2023-03-17T06:05:11;6.25;;;2.42;;
69985;SDS011;57328;52.054;5.294;2023-03-17T06:07:38;4.65;;;2.33;;
69985;SDS011;57328;52.054;5.294;2023-03-17T06:10:18;4.60;;;2.33;;
69985;SDS011;57328;52.054;5.294;2023-03-17T06:12:45;5.57;;;2.25;;
69985;SDS011;57328;52.054;5.294;2023-03-17T06:15:12;2.85;;;1.60;;
69985;SDS011;57328;52.054;5.294;2023-03-17T06:20:10;5.97;;;2.38;;
69985;SDS011;57328;52.054;5.294;2023-03-17T06:22:38;9.25;;;2.47;;
69985;SDS011;57328;52.054;5.294;2023-03-17T06:25:26;5.50;;;2.20;;
69985;SDS011;57328;52.054;5.294;2023-03-17T06:27:55;6.25;;;2.30;;
69985;SDS011;57328;52.054;5.294;2023-03-17T06:30:37;5.70;;;2.25;;
69985;SDS011;57328;52.054;5.294;2023-03-17T06:33:18;6.22;;;2.40;;
69985;SDS011;57328;52.054;5.294;2023-03-17T06:35:45;5.53;;;2.03;;
69985;SDS011;57328;52.054;5.294;2023-03-17T06:38:13;6.18;;;1.67;;
69985;SDS011;57328;52.054;5.294;2023-03-17T06:40:40;7.55;;;2.65;;
69985;SDS011;57328;52.054;5.294;2023-03-17T06:43:07;5.32;;;2.42;;
69985;SDS011;57328;52.054;5.294;2023-03-17T06:45:34;4.90;;;2.28;;
69985;SDS011;57328;52.054;5.294;2023-03-17T06:48:02;6.93;;;2.55;;
69985;SDS011;57328;52.054;5.294;2023-03-17T06:50:29;5.15;;;2.40;;
69985;SDS011;57328;52.054;5.294;2023-03-17T06:52:57;8.50;;;2.83;;
69985;SDS011;57328;52.054;5.294;2023-03-17T06:55:24;5.57;;;2.53;;
69985;SDS011;57328;52.054;5.294;2023-03-17T06:57:52;7.00;;;2.63;;
69985;SDS011;57328;52.054;5.294;2023-03-17T07:00:19;5.32;;;2.60;;
69985;SDS011;57328;52.054;5.294;2023-03-17T07:02:48;7.40;;;3.10;;
69985;SDS011;57328;52.054;5.294;2023-03-17T07:05:15;6.13;;;2.55;;
69985;SDS011;57328;52.054;5.294;2023-03-17T07:07:43;5.57;;;2.20;;
69985;SDS011;57328;52.054;5.294;2023-03-17T07:10:10;8.95;;;2.85;;
69985;SDS011;57328;52.054;5.294;2023-03-17T07:15:06;8.00;;;3.45;;
69985;SDS011;57328;52.054;5.294;2023-03-17T07:17:34;9.55;;;2.90;;
69985;SDS011;57328;52.054;5.294;2023-03-17T07:20:01;6.80;;;2.88;;
69985;SDS011;57328;52.054;5.294;2023-03-17T07:22:28;8.50;;;2.85;;
69985;SDS011;57328;52.054;5.294;2023-03-17T07:24:56;7.25;;;3.03;;
69985;SDS011;57328;52.054;5.294;2023-03-17T07:27:23;9.77;;;3.83;;
69985;SDS011;57328;52.054;5.294;2023-03-17T07:29:52;7.75;;;2.75;;
69985;SDS011;57328;52.054;5.294;2023-03-17T07:32:19;8.13;;;3.25;;
69985;SDS011;57328;52.054;5.294;2023-03-17T07:34:46;7.30;;;2.67;;
69985;SDS011;57328;52.054;5.294;2023-03-17T07:37:13;8.20;;;3.20;;
69985;SDS011;57328;52.054;5.294;2023-03-17T07:39:41;6.55;;;3.00;;
69985;SDS011;57328;52.054;5.294;2023-03-17T07:42:10;6.47;;;2.80;;
69985;SDS011;57328;52.054;5.294;2023-03-17T07:44:40;5.80;;;2.75;;
69985;SDS011;57328;52.054;5.294;2023-03-17T07:47:07;6.15;;;3.05;;
69985;SDS011;57328;52.054;5.294;2023-03-17T07:49:35;7.07;;;2.90;;
69985;SDS011;57328;52.054;5.294;2023-03-17T07:52:07;8.63;;;3.58;;
69985;SDS011;57328;52.054;5.294;2023-03-17T07:54:35;9.80;;;3.50;;
69985;SDS011;57328;52.054;5.294;2023-03-17T07:57:03;9.98;;;3.83;;
69985;SDS011;57328;52.054;5.294;2023-03-17T07:59:30;9.32;;;4.25;;
69985;SDS011;57328;52.054;5.294;2023-03-17T08:01:57;7.97;;;3.67;;
69985;SDS011;57328;52.054;5.294;2023-03-17T08:04:26;8.13;;;3.85;;
69985;SDS011;57328;52.054;5.294;2023-03-17T08:06:53;8.27;;;3.13;;
69985;SDS011;57328;52.054;5.294;2023-03-17T08:09:22;6.25;;;3.10;;
69985;SDS011;57328;52.054;5.294;2023-03-17T08:11:49;5.82;;;3.30;;
69985;SDS011;57328;52.054;5.294;2023-03-17T08:14:16;10.13;;;3.67;;
69985;SDS011;57328;52.054;5.294;2023-03-17T08:16:44;7.13;;;2.67;;
69985;SDS011;57328;52.054;5.294;2023-03-17T08:19:11;22.10;;;4.10;;
69985;SDS011;57328;52.054;5.294;2023-03-17T08:21:38;10.23;;;3.58;;
69985;SDS011;57328;52.054;5.294;2023-03-17T08:24:06;11.10;;;4.35;;
69985;SDS011;57328;52.054;5.294;2023-03-17T08:26:33;7.43;;;2.58;;
69985;SDS011;57328;52.054;5.294;2023-03-17T08:29:01;8.10;;;3.22;;
69985;SDS011;57328;52.054;5.294;2023-03-17T08:31:30;6.30;;;2.70;;
69985;SDS011;57328;52.054;5.294;2023-03-17T08:33:59;10.40;;;2.90;;
69985;SDS011;57328;52.054;5.294;2023-03-17T08:36:28;6.03;;;2.65;;
69985;SDS011;57328;52.054;5.294;2023-03-17T08:38:55;17.20;;;2.83;;
69985;SDS011;57328;52.054;5.294;2023-03-17T08:41:23;7.82;;;2.92;;
69985;SDS011;57328;52.054;5.294;2023-03-17T08:43:52;8.63;;;3.03;;
69985;SDS011;57328;52.054;5.294;2023-03-17T08:46:21;7.22;;;3.03;;
69985;SDS011;57328;52.054;5.294;2023-03-17T08:48:49;8.52;;;2.95;;
69985;SDS011;57328;52.054;5.294;2023-03-17T08:51:17;6.13;;;2.75;;
69985;SDS011;57328;52.054;5.294;2023-03-17T08:53:49;6.47;;;2.53;;
69985;SDS011;57328;52.054;5.294;2023-03-17T08:56:16;7.05;;;2.60;;
69985;SDS011;57328;52.054;5.294;2023-03-17T08:58:44;6.38;;;2.95;;
69985;SDS011;57328;52.054;5.294;2023-03-17T09:01:12;8.00;;;2.90;;
69985;SDS011;57328;52.054;5.294;2023-03-17T09:03:39;9.07;;;2.95;;
69985;SDS011;57328;52.054;5.294;2023-03-17T09:06:07;7.30;;;3.05;;
69985;SDS011;57328;52.054;5.294;2023-03-17T09:08:37;9.27;;;3.22;;
69985;SDS011;57328;52.054;5.294;2023-03-17T09:11:05;6.22;;;2.63;;
69985;SDS011;57328;52.054;5.294;2023-03-17T09:13:32;10.30;;;3.20;;
69985;SDS011;57328;52.054;5.294;2023-03-17T09:16:00;8.07;;;2.95;;
69985;SDS011;57328;52.054;5.294;2023-03-17T09:18:28;7.93;;;3.00;;
69985;SDS011;57328;52.054;5.294;2023-03-17T09:23:23;7.10;;;3.30;;
69985;SDS011;57328;52.054;5.294;2023-03-17T09:25:51;6.13;;;3.00;;
69985;SDS011;57328;52.054;5.294;2023-03-17T09:28:18;6.38;;;2.90;;
69985;SDS011;57328;52.054;5.294;2023-03-17T09:30:45;7.22;;;3.33;;
69985;SDS011;57328;52.054;5.294;2023-03-17T09:33:13;6.18;;;3.30;;
69985;SDS011;57328;52.054;5.294;2023-03-17T09:35:40;6.82;;;3.15;;
69985;SDS011;57328;52.054;5.294;2023-03-17T09:38:08;10.05;;;3.10;;
69985;SDS011;57328;52.054;5.294;2023-03-17T09:40:38;6.18;;;3.25;;
69985;SDS011;57328;52.054;5.294;2023-03-17T09:45:37;9.48;;;3.15;;
69985;SDS011;57328;52.054;5.294;2023-03-17T09:50:46;8.77;;;3.28;;
69985;SDS011;57328;52.054;5.294;2023-03-17T09:53:22;6.78;;;2.97;;
69985;SDS011;57328;52.054;5.294;2023-03-17T09:55:56;6.40;;;2.90;;
69985;SDS011;57328;52.054;5.294;2023-03-17T09:58:27;7.40;;;3.00;;
69985;SDS011;57328;52.054;5.294;2023-03-17T10:00:55;7.97;;;3.40;;
69985;SDS011;57328;52.054;5.294;2023-03-17T10:03:22;8.90;;;2.85;;
69985;SDS011;57328;52.054;5.294;2023-03-17T10:05:50;8.70;;;3.13;;
69985;SDS011;57328;52.054;5.294;2023-03-17T10:08:25;6.38;;;3.00;;
69985;SDS011;57328;52.054;5.294;2023-03-17T10:21:53;7.40;;;3.08;;
69985;SDS011;57328;52.054;5.294;2023-03-17T10:24:24;9.50;;;3.33;;
69985;SDS011;57328;52.054;5.294;2023-03-17T10:26:54;9.48;;;3.10;;
69985;SDS011;57328;52.054;5.294;2023-03-17T10:29:23;8.88;;;2.80;;
69985;SDS011;57328;52.054;5.294;2023-03-17T10:31:51;7.90;;;3.20;;
69985;SDS011;57328;52.054;5.294;2023-03-17T10:34:26;5.78;;;3.08;;
69985;SDS011;57328;52.054;5.294;2023-03-17T10:36:59;8.23;;;3.00;;
69985;SDS011;57328;52.054;5.294;2023-03-17T10:39:26;7.60;;;2.80;;
69985;SDS011;57328;52.054;5.294;2023-03-17T10:41:59;7.28;;;3.20;;
69985;SDS011;57328;52.054;5.294;2023-03-17T10:49:46;7.82;;;3.40;;
69985;SDS011;57328;52.054;5.294;2023-03-17T10:52:18;9.00;;;3.80;;
69985;SDS011;57328;52.054;5.294;2023-03-17T10:54:47;9.00;;;3.45;;
69985;SDS011;57328;52.054;5.294;2023-03-17T10:57:16;8.10;;;3.60;;
69985;SDS011;57328;52.054;5.294;2023-03-17T10:59:50;7.38;;;3.50;;
69985;SDS011;57328;52.054;5.294;2023-03-17T11:02:23;6.57;;;3.58;;
69985;SDS011;57328;52.054;5.294;2023-03-17T11:04:52;5.72;;;2.85;;
69985;SDS011;57328;52.054;5.294;2023-03-17T11:09:50;9.48;;;3.40;;
69985;SDS011;57328;52.054;5.294;2023-03-17T11:15:16;6.43;;;2.95;;
69985;SDS011;57328;52.054;5.294;2023-03-17T11:17:55;8.88;;;3.50;;
69985;SDS011;57328;52.054;5.294;2023-03-17T11:20:46;9.43;;;3.70;;
69985;SDS011;57328;52.054;5.294;2023-03-17T11:23:22;7.30;;;3.28;;
69985;SDS011;57328;52.054;5.294;2023-03-17T11:25:56;9.48;;;3.70;;
69985;SDS011;57328;52.054;5.294;2023-03-17T11:28:27;7.82;;;3.60;;
69985;SDS011;57328;52.054;5.294;2023-03-17T11:35:54;10.23;;;4.47;;
69985;SDS011;57328;52.054;5.294;2023-03-17T11:38:26;7.50;;;3.22;;
69985;SDS011;57328;52.054;5.294;2023-03-17T11:49:16;8.73;;;3.95;;
69985;SDS011;57328;52.054;5.294;2023-03-17T11:51:22;6.10;;;3.22;;
69985;SDS011;57328;52.054;5.294;2023-03-17T11:56:42;8.27;;;3.35;;
69985;SDS011;57328;52.054;5.294;2023-03-17T12:01:57;7.15;;;3.50;;
69985;SDS011;57328;52.054;5.294;2023-03-17T12:06:59;7.57;;;3.67;;
69985;SDS011;57328;52.054;5.294;2023-03-17T12:09:30;8.85;;;4.13;;
69985;SDS011;57328;52.054;5.294;2023-03-17T12:12:01;8.43;;;3.78;;
69985;SDS011;57328;52.054;5.294;2023-03-17T12:14:31;8.43;;;3.97;;
69985;SDS011;57328;52.054;5.294;2023-03-17T12:17:00;9.30;;;3.97;;
69985;SDS011;57328;52.054;5.294;2023-03-17T12:22:19;8.93;;;4.00;;
69985;SDS011;57328;52.054;5.294;2023-03-17T12:27:47;12.07;;;4.03;;
69985;SDS011;57328;52.054;5.294;2023-03-17T12:35:25;8.60;;;4.00;;
69985;SDS011;57328;52.054;5.294;2023-03-17T12:37:53;8.73;;;3.80;;
69985;SDS011;57328;52.054;5.294;2023-03-17T12:40:29;10.13;;;3.83;;
69985;SDS011;57328;52.054;5.294;2023-03-17T12:48:18;9.93;;;4.13;;
69985;SDS011;57328;52.054;5.294;2023-03-17T12:51:04;8.73;;;3.70;;
69985;SDS011;57328;52.054;5.294;2023-03-17T12:53:38;10.82;;;4.43;;
69985;SDS011;57328;52.054;5.294;2023-03-17T12:56:13;10.23;;;4.20;;
69985;SDS011;57328;52.054;5.294;2023-03-17T12:58:43;11.30;;;4.18;;
69985;SDS011;57328;52.054;5.294;2023-03-17T13:03:55;9.02;;;3.75;;
69985;SDS011;57328;52.054;5.294;2023-03-17T13:06:23;8.82;;;3.92;;
69985;SDS011;57328;52.054;5.294;2023-03-17T13:08:51;9.43;;;4.00;;
69985;SDS011;57328;52.054;5.294;2023-03-17T13:16:33;7.70;;;3.78;;
69985;SDS011;57328;52.054;5.294;2023-03-17T13:24:18;12.30;;;4.97;;
69985;SDS011;57328;52.054;5.294;2023-03-17T13:26:54;10.20;;;4.50;;
69985;SDS011;57328;52.054;5.294;2023-03-17T13:34:48;9.55;;;5.00;;
69985;SDS011;57328;52.054;5.294;2023-03-17T13:45:39;10.02;;;4.40;;
69985;SDS011;57328;52.054;5.294;2023-03-17T13:51:02;8.10;;;4.68;;
69985;SDS011;57328;52.054;5.294;2023-03-17T13:53:29;10.98;;;4.78;;
69985;SDS011;57328;52.054;5.294;2023-03-17T13:56:08;8.70;;;4.00;;
69985;SDS011;57328;52.054;5.294;2023-03-17T13:58:56;9.93;;;4.82;;
69985;SDS011;57328;52.054;5.294;2023-03-17T14:01:25;9.60;;;4.85;;
69985;SDS011;57328;52.054;5.294;2023-03-17T14:03:54;10.70;;;4.55;;
69985;SDS011;57328;52.054;5.294;2023-03-17T14:06:23;9.32;;;4.60;;
69985;SDS011;57328;52.054;5.294;2023-03-17T14:08:58;9.93;;;4.95;;
69985;SDS011;57328;52.054;5.294;2023-03-17T14:11:38;9.90;;;4.25;;
69985;SDS011;57328;52.054;5.294;2023-03-17T14:16:35;8.82;;;4.20;;
69985;SDS011;57328;52.054;5.294;2023-03-17T14:19:28;9.20;;;4.43;;
69985;SDS011;57328;52.054;5.294;2023-03-17T14:22:00;8.55;;;4.20;;
69985;SDS011;57328;52.054;5.294;2023-03-17T14:24:28;13.05;;;4.60;;
69985;SDS011;57328;52.054;5.294;2023-03-17T14:27:04;10.40;;;4.25;;
69985;SDS011;57328;52.054;5.294;2023-03-17T14:29:33;10.43;;;4.90;;
69985;SDS011;57328;52.054;5.294;2023-03-17T14:32:11;11.18;;;4.93;;
69985;SDS011;57328;52.054;5.294;2023-03-17T14:34:46;8.55;;;4.45;;
69985;SDS011;57328;52.054;5.294;2023-03-17T14:37:13;8.73;;;4.35;;
69985;SDS011;57328;52.054;5.294;2023-03-17T14:39:46;10.02;;;4.30;;
69985;SDS011;57328;52.054;5.294;2023-03-17T14:42:13;9.60;;;4.22;;
69985;SDS011;57328;52.054;5.294;2023-03-17T14:44:45;11.18;;;4.75;;
69985;SDS011;57328;52.054;5.294;2023-03-17T14:47:19;8.13;;;4.03;;
69985;SDS011;57328;52.054;5.294;2023-03-17T14:49:47;7.65;;;4.07;;
69985;SDS011;57328;52.054;5.294;2023-03-17T14:52:18;8.93;;;4.60;;
69985;SDS011;57328;52.054;5.294;2023-03-17T14:54:48;8.52;;;3.97;;
69985;SDS011;57328;52.054;5.294;2023-03-17T14:57:16;8.98;;;4.10;;
69985;SDS011;57328;52.054;5.294;2023-03-17T14:59:54;10.82;;;4.45;;
69985;SDS011;57328;52.054;5.294;2023-03-17T15:02:32;9.85;;;4.40;;
69985;SDS011;57328;52.054;5.294;2023-03-17T15:07:37;8.88;;;4.28;;
69985;SDS011;57328;52.054;5.294;2023-03-17T15:10:05;9.55;;;4.45;;
69985;SDS011;57328;52.054;5.294;2023-03-17T15:12:39;8.90;;;4.15;;
69985;SDS011;57328;52.054;5.294;2023-03-17T15:15:18;11.75;;;4.72;;
69985;SDS011;57328;52.054;5.294;2023-03-17T15:17:49;9.68;;;4.63;;
69985;SDS011;57328;52.054;5.294;2023-03-17T15:20:16;9.43;;;4.60;;
69985;SDS011;57328;52.054;5.294;2023-03-17T15:25:22;9.77;;;4.38;;
69985;SDS011;57328;52.054;5.294;2023-03-17T15:27:53;10.30;;;4.40;;
69985;SDS011;57328;52.054;5.294;2023-03-17T15:30:21;9.68;;;4.80;;
69985;SDS011;57328;52.054;5.294;2023-03-17T15:32:50;9.32;;;4.28;;
69985;SDS011;57328;52.054;5.294;2023-03-17T15:35:18;9.32;;;4.72;;
69985;SDS011;57328;52.054;5.294;2023-03-17T15:37:45;9.43;;;4.60;;
69985;SDS011;57328;52.054;5.294;2023-03-17T15:40:12;13.15;;;4.47;;
69985;SDS011;57328;52.054;5.294;2023-03-17T15:45:15;11.23;;;4.35;;
69985;SDS011;57328;52.054;5.294;2023-03-17T15:47:44;9.57;;;4.43;;
69985;SDS011;57328;52.054;5.294;2023-03-17T15:52:43;9.18;;;4.18;;
69985;SDS011;57328;52.054;5.294;2023-03-17T15:55:15;7.65;;;4.20;;
69985;SDS011;57328;52.054;5.294;2023-03-17T15:57:44;9.02;;;4.30;;
69985;SDS011;57328;52.054;5.294;2023-03-17T16:00:20;8.25;;;4.10;;
69985;SDS011;57328;52.054;5.294;2023-03-17T16:02:49;11.15;;;4.15;;
69985;SDS011;57328;52.054;5.294;2023-03-17T16:05:23;10.55;;;4.28;;
69985;SDS011;57328;52.054;5.294;2023-03-17T16:07:50;8.60;;;4.20;;
69985;SDS011;57328;52.054;5.294;2023-03-17T16:10:23;10.27;;;4.30;;
69985;SDS011;57328;52.054;5.294;2023-03-17T16:12:51;9.18;;;3.90;;
69985;SDS011;57328;52.054;5.294;2023-03-17T16:15:19;8.43;;;4.00;;
69985;SDS011;57328;52.054;5.294;2023-03-17T16:17:50;9.10;;;4.10;;
69985;SDS011;57328;52.054;5.294;2023-03-17T16:20:22;10.38;;;4.47;;
69985;SDS011;57328;52.054;5.294;2023-03-17T16:22:51;8.90;;;4.03;;
69985;SDS011;57328;52.054;5.294;2023-03-17T16:25:28;10.48;;;4.32;;
69985;SDS011;57328;52.054;5.294;2023-03-17T16:27:57;11.13;;;4.75;;
69985;SDS011;57328;52.054;5.294;2023-03-17T16:30:26;10.82;;;5.22;;
69985;SDS011;57328;52.054;5.294;2023-03-17T16:33:01;11.27;;;4.70;;
69985;SDS011;57328;52.054;5.294;2023-03-17T16:37:57;10.90;;;4.47;;
69985;SDS011;57328;52.054;5.294;2023-03-17T16:40:25;10.02;;;4.95;;
69985;SDS011;57328;52.054;5.294;2023-03-17T16:42:53;10.07;;;4.45;;
69985;SDS011;57328;52.054;5.294;2023-03-17T16:47:52;13.55;;;4.72;;
69985;SDS011;57328;52.054;5.294;2023-03-17T16:50:20;10.02;;;4.18;;
69985;SDS011;57328;52.054;5.294;2023-03-17T16:52:47;21.25;;;4.60;;
69985;SDS011;57328;52.054;5.294;2023-03-17T16:55:15;9.23;;;4.22;;
69985;SDS011;57328;52.054;5.294;2023-03-17T16:57:44;12.38;;;4.55;;
69985;SDS011;57328;52.054;5.294;2023-03-17T17:00:23;9.48;;;4.25;;
69985;SDS011;57328;52.054;5.294;2023-03-17T17:02:50;9.80;;;4.30;;
69985;SDS011;57328;52.054;5.294;2023-03-17T17:05:24;9.93;;;4.50;;
69985;SDS011;57328;52.054;5.294;2023-03-17T17:08:06;11.35;;;5.15;;
69985;SDS011;57328;52.054;5.294;2023-03-17T17:10:34;12.32;;;4.50;;
69985;SDS011;57328;52.054;5.294;2023-03-17T17:16:04;12.00;;;4.22;;
69985;SDS011;57328;52.054;5.294;2023-03-17T17:18:33;10.35;;;4.10;;
69985;SDS011;57328;52.054;5.294;2023-03-17T17:21:14;10.38;;;4.68;;